sensor_id;sensor_type;location;lat;lon;timestamp;pressure;altitude;pressure_sealevel;temperature;humidity
28000;BME280;15328;50.860;10.562;2023-01-28T00:02:20;97247.22;;;1.37;73.66
28000;BME280;15328;50.860;10.562;2023-01-28T00:07:21;97244.34;;;1.40;73.68
28000;BME280;15328;50.860;10.562;2023-01-28T00:12:21;97243.09;;;1.44;73.24
28000;BME280;15328;50.860;10.562;2023-01-28T00:17:22;97248.19;;;1.36;73.54
28000;BME280;15328;50.860;10.562;2023-01-28T00:22:23;97245.56;;;1.36;73.12
28000;BME280;15328;50.860;10.562;2023-01-28T00:27:24;97243.09;;;1.34;73.40
28000;BME280;15328;50.860;10.562;2023-01-28T00:32:24;97247.78;;;1.31;73.22
28000;BME280;15328;50.860;10.562;2023-01-28T00:37:24;97243.91;;;1.35;73.15
28000;BME280;15328;50.860;10.562;2023-01-28T00:42:25;97242.25;;;1.34;72.75
28000;BME280;15328;50.860;10.562;2023-01-28T00:47:25;97230.81;;;1.35;73.21
28000;BME280;15328;50.860;10.562;2023-01-28T00:52:25;97245.47;;;1.28;72.86
28000;BME280;15328;50.860;10.562;2023-01-28T00:57:26;97239.78;;;1.32;73.04
28000;BME280;15328;50.860;10.562;2023-01-28T01:02:27;97247.25;;;1.27;73.29
28000;BME280;15328;50.860;10.562;2023-01-28T01:07:29;97240.50;;;1.24;72.92
28000;BME280;15328;50.860;10.562;2023-01-28T01:12:40;97234.97;;;1.28;72.59
28000;BME280;15328;50.860;10.562;2023-01-28T01:17:43;97236.50;;;1.20;72.83
28000;BME280;15328;50.860;10.562;2023-01-28T01:22:44;97233.88;;;1.20;72.83
28000;BME280;15328;50.860;10.562;2023-01-28T01:27:47;97239.13;;;1.20;72.56
28000;BME280;15328;50.860;10.562;2023-01-28T01:32:48;97238.44;;;1.18;73.33
28000;BME280;15328;50.860;10.562;2023-01-28T01:37:48;97242.00;;;1.27;73.27
28000;BME280;15328;50.860;10.562;2023-01-28T01:42:49;97244.78;;;1.26;72.63
28000;BME280;15328;50.860;10.562;2023-01-28T01:47:56;97249.19;;;1.25;73.04
28000;BME280;15328;50.860;10.562;2023-01-28T01:53:02;97259.97;;;1.22;73.46
28000;BME280;15328;50.860;10.562;2023-01-28T01:58:07;97249.47;;;1.22;73.49
28000;BME280;15328;50.860;10.562;2023-01-28T02:03:10;97259.41;;;1.18;73.38
28000;BME280;15328;50.860;10.562;2023-01-28T02:08:11;97262.28;;;1.25;72.29
28000;BME280;15328;50.860;10.562;2023-01-28T02:13:24;97270.72;;;1.19;73.51
28000;BME280;15328;50.860;10.562;2023-01-28T02:18:26;97271.84;;;1.16;73.15
28000;BME280;15328;50.860;10.562;2023-01-28T02:23:45;97279.84;;;1.15;73.21
28000;BME280;15328;50.860;10.562;2023-01-28T02:39:42;97274.03;;;1.21;72.88
28000;BME280;15328;50.860;10.562;2023-01-28T02:44:44;97274.03;;;1.21;72.50
28000;BME280;15328;50.860;10.562;2023-01-28T02:49:52;97283.00;;;1.18;72.98
28000;BME280;15328;50.860;10.562;2023-01-28T02:55:07;97285.06;;;1.15;72.51
28000;BME280;15328;50.860;10.562;2023-01-28T03:05:31;97296.09;;;1.18;71.78
28000;BME280;15328;50.860;10.562;2023-01-28T03:10:34;97301.78;;;1.14;72.47
28000;BME280;15328;50.860;10.562;2023-01-28T03:15:39;97306.19;;;1.13;73.11
28000;BME280;15328;50.860;10.562;2023-01-28T03:26:19;97313.50;;;1.10;72.68
28000;BME280;15328;50.860;10.562;2023-01-28T03:31:40;97317.06;;;1.18;73.27
28000;BME280;15328;50.860;10.562;2023-01-28T03:37:00;97321.63;;;1.16;72.61
28000;BME280;15328;50.860;10.562;2023-01-28T03:42:09;97309.91;;;1.11;72.79
28000;BME280;15328;50.860;10.562;2023-01-28T03:47:11;97316.38;;;1.07;72.80
28000;BME280;15328;50.860;10.562;2023-01-28T03:52:11;97320.38;;;1.01;72.49
28000;BME280;15328;50.860;10.562;2023-01-28T03:57:12;97316.78;;;0.92;72.55
28000;BME280;15328;50.860;10.562;2023-01-28T04:02:12;97322.28;;;0.99;72.57
28000;BME280;15328;50.860;10.562;2023-01-28T04:07:14;97320.09;;;0.95;72.33
28000;BME280;15328;50.860;10.562;2023-01-28T04:12:15;97326.72;;;0.99;72.94
28000;BME280;15328;50.860;10.562;2023-01-28T04:17:15;97327.41;;;1.01;72.04
28000;BME280;15328;50.860;10.562;2023-01-28T04:22:15;97327.00;;;0.96;72.31
28000;BME280;15328;50.860;10.562;2023-01-28T04:27:16;97319.81;;;0.98;72.29
28000;BME280;15328;50.860;10.562;2023-01-28T04:32:16;97315.13;;;1.01;72.79
28000;BME280;15328;50.860;10.562;2023-01-28T04:37:16;97320.63;;;0.98;71.64
28000;BME280;15328;50.860;10.562;2023-01-28T04:42:17;97316.63;;;0.94;71.87
28000;BME280;15328;50.860;10.562;2023-01-28T04:47:17;97324.78;;;0.91;72.38
28000;BME280;15328;50.860;10.562;2023-01-28T04:52:19;97322.16;;;0.91;71.72
28000;BME280;15328;50.860;10.562;2023-01-28T04:57:19;97330.84;;;0.91;72.17
28000;BME280;15328;50.860;10.562;2023-01-28T05:02:19;97326.03;;;0.87;71.96
28000;BME280;15328;50.860;10.562;2023-01-28T05:07:19;97335.81;;;0.85;72.51
28000;BME280;15328;50.860;10.562;2023-01-28T05:12:20;97335.13;;;0.83;71.81
28000;BME280;15328;50.860;10.562;2023-01-28T05:17:21;97325.47;;;0.83;71.25
28000;BME280;15328;50.860;10.562;2023-01-28T05:22:21;97346.53;;;0.82;71.39
28000;BME280;15328;50.860;10.562;2023-01-28T05:27:22;97339.22;;;0.76;71.26
28000;BME280;15328;50.860;10.562;2023-01-28T05:32:22;97341.28;;;0.82;71.91
28000;BME280;15328;50.860;10.562;2023-01-28T05:37:23;97341.84;;;0.76;70.96
28000;BME280;15328;50.860;10.562;2023-01-28T05:42:23;97358.66;;;0.73;71.55
28000;BME280;15328;50.860;10.562;2023-01-28T05:47:23;97363.63;;;0.76;70.54
28000;BME280;15328;50.860;10.562;2023-01-28T05:52:24;97365.94;;;0.70;71.41
28000;BME280;15328;50.860;10.562;2023-01-28T05:57:24;97361.81;;;0.67;70.36
28000;BME280;15328;50.860;10.562;2023-01-28T06:02:24;97366.22;;;0.67;70.41
28000;BME280;15328;50.860;10.562;2023-01-28T06:07:25;97371.59;;;0.65;69.97
28000;BME280;15328;50.860;10.562;2023-01-28T06:12:25;97370.75;;;0.65;70.41
28000;BME280;15328;50.860;10.562;2023-01-28T06:17:25;97375.19;;;0.64;70.54
28000;BME280;15328;50.860;10.562;2023-01-28T06:22:26;97382.91;;;0.66;70.59
28000;BME280;15328;50.860;10.562;2023-01-28T06:27:26;97392.25;;;0.58;70.08
28000;BME280;15328;50.860;10.562;2023-01-28T06:32:27;97385.22;;;0.59;70.37
28000;BME280;15328;50.860;10.562;2023-01-28T06:37:27;97395.38;;;0.52;69.88
28000;BME280;15328;50.860;10.562;2023-01-28T06:42:27;97398.41;;;0.48;69.34
28000;BME280;15328;50.860;10.562;2023-01-28T06:47:28;97388.19;;;0.45;69.16
28000;BME280;15328;50.860;10.562;2023-01-28T06:52:28;97396.88;;;0.45;69.96
28000;BME280;15328;50.860;10.562;2023-01-28T06:57:28;97397.97;;;0.43;68.86
28000;BME280;15328;50.860;10.562;2023-01-28T07:02:29;97399.31;;;0.37;69.39
28000;BME280;15328;50.860;10.562;2023-01-28T07:07:29;97408.13;;;0.36;69.39
28000;BME280;15328;50.860;10.562;2023-01-28T07:12:29;97404.97;;;0.33;69.35
28000;BME280;15328;50.860;10.562;2023-01-28T07:17:30;97404.25;;;0.30;69.46
28000;BME280;15328;50.860;10.562;2023-01-28T07:22:30;97405.91;;;0.32;69.41
28000;BME280;15328;50.860;10.562;2023-01-28T07:27:30;97399.72;;;0.33;69.88
28000;BME280;15328;50.860;10.562;2023-01-28T07:32:31;97411.97;;;0.32;68.77
28000;BME280;15328;50.860;10.562;2023-01-28T07:37:31;97410.59;;;0.28;69.41
28000;BME280;15328;50.860;10.562;2023-01-28T07:42:32;97413.06;;;0.29;69.13
28000;BME280;15328;50.860;10.562;2023-01-28T07:47:32;97419.75;;;0.22;68.70
28000;BME280;15328;50.860;10.562;2023-01-28T07:52:32;97433.53;;;0.24;68.75
28000;BME280;15328;50.860;10.562;2023-01-28T07:57:53;97435.94;;;0.27;68.73
28000;BME280;15328;50.860;10.562;2023-01-28T08:02:59;97425.13;;;0.21;69.21
28000;BME280;15328;50.860;10.562;2023-01-28T08:08:00;97438.78;;;0.24;68.55
28000;BME280;15328;50.860;10.562;2023-01-28T08:13:00;97442.22;;;0.25;68.65
28000;BME280;15328;50.860;10.562;2023-01-28T08:18:02;97439.25;;;0.29;68.29
28000;BME280;15328;50.860;10.562;2023-01-28T08:23:16;97446.31;;;0.18;67.21
28000;BME280;15328;50.860;10.562;2023-01-28T08:28:17;97436.69;;;0.18;67.92
28000;BME280;15328;50.860;10.562;2023-01-28T08:33:18;97436.69;;;0.18;68.17
28000;BME280;15328;50.860;10.562;2023-01-28T08:38:19;97437.25;;;0.22;67.45
28000;BME280;15328;50.860;10.562;2023-01-28T08:43:20;97441.53;;;0.23;66.79
28000;BME280;15328;50.860;10.562;2023-01-28T08:48:20;97449.13;;;0.26;67.27
28000;BME280;15328;50.860;10.562;2023-01-28T08:53:20;97449.13;;;0.26;66.72
28000;BME280;15328;50.860;10.562;2023-01-28T08:58:21;97455.19;;;0.26;67.27
28000;BME280;15328;50.860;10.562;2023-01-28T09:03:21;97455.09;;;0.28;67.58
28000;BME280;15328;50.860;10.562;2023-01-28T09:08:22;97455.78;;;0.30;67.63
28000;BME280;15328;50.860;10.562;2023-01-28T09:13:22;97456.63;;;0.30;66.71
28000;BME280;15328;50.860;10.562;2023-01-28T09:18:23;97466.56;;;0.37;67.20
28000;BME280;15328;50.860;10.562;2023-01-28T09:23:23;97459.41;;;0.39;66.50
28000;BME280;15328;50.860;10.562;2023-01-28T09:28:24;97465.59;;;0.38;66.14
28000;BME280;15328;50.860;10.562;2023-01-28T09:33:24;97474.69;;;0.34;67.08
28000;BME280;15328;50.860;10.562;2023-01-28T09:38:24;97480.75;;;0.34;66.22
28000;BME280;15328;50.860;10.562;2023-01-28T09:48:39;97489.28;;;0.36;66.34
28000;BME280;15328;50.860;10.562;2023-01-28T09:53:47;97500.47;;;0.38;65.45
28000;BME280;15328;50.860;10.562;2023-01-28T09:58:49;97515.34;;;0.38;65.58
28000;BME280;15328;50.860;10.562;2023-01-28T10:04:02;97511.50;;;0.42;65.75
28000;BME280;15328;50.860;10.562;2023-01-28T10:09:32;97514.63;;;0.36;64.72
28000;BME280;15328;50.860;10.562;2023-01-28T10:20:02;97511.50;;;0.42;64.72
28000;BME280;15328;50.860;10.562;2023-01-28T10:25:13;97506.66;;;0.37;64.11
28000;BME280;15328;50.860;10.562;2023-01-28T10:30:25;97518.41;;;0.43;63.92
28000;BME280;15328;50.860;10.562;2023-01-28T10:35:25;97507.34;;;0.39;64.46
28000;BME280;15328;50.860;10.562;2023-01-28T10:40:27;97514.38;;;0.39;63.96
28000;BME280;15328;50.860;10.562;2023-01-28T10:45:33;97502.81;;;0.41;64.62
28000;BME280;15328;50.860;10.562;2023-01-28T10:50:36;97509.00;;;0.40;64.44
28000;BME280;15328;50.860;10.562;2023-01-28T10:55:57;97519.47;;;0.40;64.67
28000;BME280;15328;50.860;10.562;2023-01-28T11:01:02;97518.78;;;0.38;65.25
28000;BME280;15328;50.860;10.562;2023-01-28T11:06:04;97506.13;;;0.43;64.63
28000;BME280;15328;50.860;10.562;2023-01-28T11:11:13;97509.72;;;0.42;64.46
28000;BME280;15328;50.860;10.562;2023-01-28T11:16:16;97500.91;;;0.43;65.12
28000;BME280;15328;50.860;10.562;2023-01-28T11:21:22;97501.84;;;0.42;65.80
28000;BME280;15328;50.860;10.562;2023-01-28T11:26:26;97514.56;;;0.47;65.35
28000;BME280;15328;50.860;10.562;2023-01-28T11:31:27;97515.91;;;0.41;65.14
28000;BME280;15328;50.860;10.562;2023-01-28T11:36:32;97513.72;;;0.46;66.07
28000;BME280;15328;50.860;10.562;2023-01-28T11:41:35;97501.59;;;0.45;66.25
28000;BME280;15328;50.860;10.562;2023-01-28T11:46:46;97493.19;;;0.42;65.99
28000;BME280;15328;50.860;10.562;2023-01-28T12:02:52;97493.19;;;0.42;64.99
28000;BME280;15328;50.860;10.562;2023-01-28T12:07:38;97497.59;;;0.41;64.33
28000;BME280;15328;50.860;10.562;2023-01-28T12:23:38;97485.41;;;0.30;64.14
28000;BME280;15328;50.860;10.562;2023-01-28T12:39:36;97487.38;;;0.17;64.71
28000;BME280;15328;50.860;10.562;2023-01-28T12:44:48;97479.66;;;0.16;64.72
28000;BME280;15328;50.860;10.562;2023-01-28T12:49:54;97472.38;;;0.19;63.80
28000;BME280;15328;50.860;10.562;2023-01-28T12:55:18;97476.50;;;0.22;64.18
28000;BME280;15328;50.860;10.562;2023-01-28T13:00:50;97473.47;;;0.17;64.20
28000;BME280;15328;50.860;10.562;2023-01-28T13:11:46;97483.47;;;0.12;64.65
28000;BME280;15328;50.860;10.562;2023-01-28T13:16:47;97494.06;;;0.10;65.11
28000;BME280;15328;50.860;10.562;2023-01-28T13:21:47;97503.72;;;0.10;64.24
28000;BME280;15328;50.860;10.562;2023-01-28T13:26:55;97515.84;;;0.11;63.73
28000;BME280;15328;50.860;10.562;2023-01-28T13:31:58;97501.78;;;0.12;63.54
28000;BME280;15328;50.860;10.562;2023-01-28T13:37:03;97517.31;;;0.04;63.28
28000;BME280;15328;50.860;10.562;2023-01-28T13:42:09;97514.00;;;0.02;63.31
28000;BME280;15328;50.860;10.562;2023-01-28T13:47:20;97515.66;;;0.03;63.57
28000;BME280;15328;50.860;10.562;2023-01-28T14:03:19;97517.47;;;-0.09;63.37
28000;BME280;15328;50.860;10.562;2023-01-28T14:19:11;97511.47;;;-0.21;62.98
28000;BME280;15328;50.860;10.562;2023-01-28T14:24:15;97503.63;;;-0.21;62.43
28000;BME280;15328;50.860;10.562;2023-01-28T14:29:26;97502.34;;;-0.26;62.28
28000;BME280;15328;50.860;10.562;2023-01-28T14:34:33;97508.16;;;-0.23;63.25
28000;BME280;15328;50.860;10.562;2023-01-28T14:39:59;97493.53;;;-0.25;62.83
28000;BME280;15328;50.860;10.562;2023-01-28T14:45:24;97483.91;;;-0.25;62.87
28000;BME280;15328;50.860;10.562;2023-01-28T14:50:52;97478.78;;;-0.26;62.24
28000;BME280;15328;50.860;10.562;2023-01-28T14:56:49;97484.75;;;-0.36;62.26
28000;BME280;15328;50.860;10.562;2023-01-28T15:01:27;97485.13;;;-0.40;62.61
28000;BME280;15328;50.860;10.562;2023-01-28T15:06:34;97469.81;;;-0.45;61.94
28000;BME280;15328;50.860;10.562;2023-01-28T15:11:40;97477.09;;;-0.48;62.68
28000;BME280;15328;50.860;10.562;2023-01-28T15:16:45;97454.16;;;-0.56;62.70
28000;BME280;15328;50.860;10.562;2023-01-28T15:21:46;97446.25;;;-0.66;63.79
28000;BME280;15328;50.860;10.562;2023-01-28T15:26:47;97445.16;;;-0.63;63.24
28000;BME280;15328;50.860;10.562;2023-01-28T15:31:47;97456.31;;;-0.61;63.60
28000;BME280;15328;50.860;10.562;2023-01-28T15:36:49;97462.25;;;-0.59;63.41
28000;BME280;15328;50.860;10.562;2023-01-28T15:42:04;97459.19;;;-0.64;63.32
28000;BME280;15328;50.860;10.562;2023-01-28T15:47:29;97458.59;;;-0.68;62.64
28000;BME280;15328;50.860;10.562;2023-01-28T15:52:35;97474.66;;;-0.72;62.97
28000;BME280;15328;50.860;10.562;2023-01-28T15:57:36;97480.97;;;-0.75;64.01
28000;BME280;15328;50.860;10.562;2023-01-28T16:02:48;97484.41;;;-0.74;65.48
28000;BME280;15328;50.860;10.562;2023-01-28T16:07:49;97483.00;;;-0.78;64.60
28000;BME280;15328;50.860;10.562;2023-01-28T16:13:27;97490.47;;;-0.74;64.50
28000;BME280;15328;50.860;10.562;2023-01-28T16:18:47;97496.31;;;-0.81;65.36
28000;BME280;15328;50.860;10.562;2023-01-28T16:29:12;97479.34;;;-0.98;65.06
28000;BME280;15328;50.860;10.562;2023-01-28T16:34:12;97503.78;;;-0.99;65.56
28000;BME280;15328;50.860;10.562;2023-01-28T16:39:13;97503.56;;;-0.96;66.00
28000;BME280;15328;50.860;10.562;2023-01-28T16:44:14;97504.50;;;-0.97;66.35
28000;BME280;15328;50.860;10.562;2023-01-28T16:49:15;97512.22;;;-0.96;66.62
28000;BME280;15328;50.860;10.562;2023-01-28T16:54:15;97518.28;;;-0.95;65.94
28000;BME280;15328;50.860;10.562;2023-01-28T16:59:15;97514.72;;;-0.94;66.36
28000;BME280;15328;50.860;10.562;2023-01-28T17:04:16;97507.22;;;-1.10;67.35
28000;BME280;15328;50.860;10.562;2023-01-28T17:09:16;97527.06;;;-1.07;66.10
28000;BME280;15328;50.860;10.562;2023-01-28T17:14:16;97525.28;;;-1.07;67.16
28000;BME280;15328;50.860;10.562;2023-01-28T17:19:17;97511.63;;;-1.10;66.22
28000;BME280;15328;50.860;10.562;2023-01-28T17:24:17;97516.75;;;-1.09;65.43
28000;BME280;15328;50.860;10.562;2023-01-28T17:29:18;97498.22;;;-1.06;65.80
28000;BME280;15328;50.860;10.562;2023-01-28T17:34:18;97498.34;;;-1.18;65.81
28000;BME280;15328;50.860;10.562;2023-01-28T17:39:18;97510.81;;;-1.22;66.12
28000;BME280;15328;50.860;10.562;2023-01-28T17:44:19;97519.22;;;-1.18;66.22
28000;BME280;15328;50.860;10.562;2023-01-28T17:49:19;97527.88;;;-1.18;66.14
28000;BME280;15328;50.860;10.562;2023-01-28T17:54:19;97532.28;;;-1.30;66.67
28000;BME280;15328;50.860;10.562;2023-01-28T17:59:20;97543.44;;;-1.28;67.08
28000;BME280;15328;50.860;10.562;2023-01-28T18:04:20;97566.47;;;-1.21;67.53
28000;BME280;15328;50.860;10.562;2023-01-28T18:09:21;97580.00;;;-1.16;66.00
28000;BME280;15328;50.860;10.562;2023-01-28T18:14:21;97591.41;;;-1.17;66.69
28000;BME280;15328;50.860;10.562;2023-01-28T18:19:21;97581.41;;;-1.23;66.64
28000;BME280;15328;50.860;10.562;2023-01-28T18:24:23;97597.69;;;-1.31;67.05
28000;BME280;15328;50.860;10.562;2023-01-28T18:29:25;97591.34;;;-1.40;66.82
28000;BME280;15328;50.860;10.562;2023-01-28T18:34:27;97606.28;;;-1.42;66.64
28000;BME280;15328;50.860;10.562;2023-01-28T18:39:28;97612.59;;;-1.44;66.89
28000;BME280;15328;50.860;10.562;2023-01-28T18:44:30;97606.81;;;-1.37;66.65
28000;BME280;15328;50.860;10.562;2023-01-28T18:49:31;97627.78;;;-1.38;65.96
28000;BME280;15328;50.860;10.562;2023-01-28T18:54:31;97614.13;;;-1.42;66.44
28000;BME280;15328;50.860;10.562;2023-01-28T18:59:31;97610.09;;;-1.46;66.46
28000;BME280;15328;50.860;10.562;2023-01-28T19:04:32;97606.41;;;-1.54;65.51
28000;BME280;15328;50.860;10.562;2023-01-28T19:09:32;97611.16;;;-1.48;65.86
28000;BME280;15328;50.860;10.562;2023-01-28T19:14:32;97607.59;;;-1.47;66.03
28000;BME280;15328;50.860;10.562;2023-01-28T19:19:32;97609.75;;;-1.41;65.69
28000;BME280;15328;50.860;10.562;2023-01-28T19:24:33;97591.81;;;-1.46;65.71
28000;BME280;15328;50.860;10.562;2023-01-28T19:29:34;97599.91;;;-1.73;66.13
28000;BME280;15328;50.860;10.562;2023-01-28T19:34:34;97593.88;;;-1.73;66.25
28000;BME280;15328;50.860;10.562;2023-01-28T19:39:35;97573.00;;;-1.73;66.19
28000;BME280;15328;50.860;10.562;2023-01-28T19:44:35;97577.16;;;-1.71;65.50
28000;BME280;15328;50.860;10.562;2023-01-28T19:49:36;97588.41;;;-1.70;65.74
28000;BME280;15328;50.860;10.562;2023-01-28T19:54:36;97599.25;;;-1.64;65.75
28000;BME280;15328;50.860;10.562;2023-01-28T19:59:37;97601.25;;;-1.67;65.80
28000;BME280;15328;50.860;10.562;2023-01-28T20:04:37;97601.09;;;-1.77;66.26
28000;BME280;15328;50.860;10.562;2023-01-28T20:09:37;97592.44;;;-1.77;66.33
28000;BME280;15328;50.860;10.562;2023-01-28T20:14:37;97587.09;;;-1.76;66.75
28000;BME280;15328;50.860;10.562;2023-01-28T20:19:38;97595.53;;;-1.72;66.07
28000;BME280;15328;50.860;10.562;2023-01-28T20:24:38;97596.72;;;-1.76;66.40
28000;BME280;15328;50.860;10.562;2023-01-28T20:29:39;97602.88;;;-1.77;66.76
28000;BME280;15328;50.860;10.562;2023-01-28T20:34:39;97592.94;;;-1.72;67.00
28000;BME280;15328;50.860;10.562;2023-01-28T20:39:39;97605.84;;;-1.71;67.44
28000;BME280;15328;50.860;10.562;2023-01-28T20:44:40;97605.59;;;-1.79;67.11
28000;BME280;15328;50.860;10.562;2023-01-28T20:49:40;97611.41;;;-1.75;67.63
28000;BME280;15328;50.860;10.562;2023-01-28T20:54:40;97597.53;;;-1.76;67.70
28000;BME280;15328;50.860;10.562;2023-01-28T20:59:41;97589.94;;;-1.79;67.18
28000;BME280;15328;50.860;10.562;2023-01-28T21:04:41;97593.16;;;-1.75;67.06
28000;BME280;15328;50.860;10.562;2023-01-28T21:09:41;97603.47;;;-1.74;66.35
28000;BME280;15328;50.860;10.562;2023-01-28T21:14:42;97597.44;;;-1.74;66.87
28000;BME280;15328;50.860;10.562;2023-01-28T21:19:42;97604.78;;;-1.68;67.09
28000;BME280;15328;50.860;10.562;2023-01-28T21:24:42;97598.84;;;-1.70;67.15
28000;BME280;15328;50.860;10.562;2023-01-28T21:29:43;97594.34;;;-1.68;66.69
28000;BME280;15328;50.860;10.562;2023-01-28T21:34:44;97592.47;;;-1.66;67.60
28000;BME280;15328;50.860;10.562;2023-01-28T21:39:44;97595.91;;;-1.66;66.30
28000;BME280;15328;50.860;10.562;2023-01-28T21:44:44;97589.66;;;-1.63;67.32
28000;BME280;15328;50.860;10.562;2023-01-28T21:49:46;97597.56;;;-1.65;67.49
28000;BME280;15328;50.860;10.562;2023-01-28T21:54:46;97595.47;;;-1.60;67.33
28000;BME280;15328;50.860;10.562;2023-01-28T21:59:47;97589.19;;;-1.57;66.94
28000;BME280;15328;50.860;10.562;2023-01-28T22:04:47;97574.38;;;-1.57;67.06
28000;BME280;15328;50.860;10.562;2023-01-28T22:09:50;97575.44;;;-1.59;66.80
28000;BME280;15328;50.860;10.562;2023-01-28T22:14:51;97585.03;;;-1.60;67.31
28000;BME280;15328;50.860;10.562;2023-01-28T22:19:51;97583.13;;;-1.58;67.34
28000;BME280;15328;50.860;10.562;2023-01-28T22:24:52;97577.69;;;-1.54;66.86
28000;BME280;15328;50.860;10.562;2023-01-28T22:29:52;97586.22;;;-1.64;66.40
28000;BME280;15328;50.860;10.562;2023-01-28T22:34:52;97582.50;;;-1.72;66.21
28000;BME280;15328;50.860;10.562;2023-01-28T22:39:53;97576.66;;;-1.76;65.74
28000;BME280;15328;50.860;10.562;2023-01-28T22:44:53;97581.41;;;-1.81;65.87
28000;BME280;15328;50.860;10.562;2023-01-28T22:49:53;97575.22;;;-1.91;65.80
28000;BME280;15328;50.860;10.562;2023-01-28T22:54:54;97583.69;;;-2.00;65.06
28000;BME280;15328;50.860;10.562;2023-01-28T22:59:54;97590.69;;;-2.01;65.04
28000;BME280;15328;50.860;10.562;2023-01-28T23:04:54;97590.91;;;-2.04;65.15
28000;BME280;15328;50.860;10.562;2023-01-28T23:09:55;97588.63;;;-2.08;65.62
28000;BME280;15328;50.860;10.562;2023-01-28T23:14:55;97578.53;;;-2.13;65.52
28000;BME280;15328;50.860;10.562;2023-01-28T23:20:14;97588.03;;;-2.12;65.47
28000;BME280;15328;50.860;10.562;2023-01-28T23:25:35;97601.06;;;-2.12;66.17
28000;BME280;15328;50.860;10.562;2023-01-28T23:30:35;97584.81;;;-2.15;66.43
28000;BME280;15328;50.860;10.562;2023-01-28T23:35:35;97572.59;;;-2.15;66.31
28000;BME280;15328;50.860;10.562;2023-01-28T23:40:36;97565.50;;;-2.13;65.37
28000;BME280;15328;50.860;10.562;2023-01-28T23:45:36;97575.34;;;-2.16;65.36
28000;BME280;15328;50.860;10.562;2023-01-28T23:50:36;97588.47;;;-2.18;65.16
28000;BME280;15328;50.860;10.562;2023-01-28T23:55:39;97583.56;;;-2.23;65.58
